sensor_id;sensor_type;location;lat;lon;timestamp;pressure;altitude;pressure_sealevel;temperature;humidity
6024;BME280;3040;42.654;23.296;2023-04-27T00:00:39;93933.06;;;8.11;60.03
6024;BME280;3040;42.654;23.296;2023-04-27T00:03:06;93938.66;;;7.98;60.12
6024;BME280;3040;42.654;23.296;2023-04-27T00:05:35;93938.66;;;7.98;60.04
6024;BME280;3040;42.654;23.296;2023-04-27T00:08:03;93945.28;;;8.04;60.16
6024;BME280;3040;42.654;23.296;2023-04-27T00:10:30;93928.28;;;7.93;60.32
6024;BME280;3040;42.654;23.296;2023-04-27T00:12:57;93954.28;;;7.91;60.96
6024;BME280;3040;42.654;23.296;2023-04-27T00:15:24;93944.63;;;7.95;60.30
6024;BME280;3040;42.654;23.296;2023-04-27T00:17:51;93940.84;;;7.96;60.45
6024;BME280;3040;42.654;23.296;2023-04-27T00:20:18;93956.31;;;7.94;60.48
6024;BME280;3040;42.654;23.296;2023-04-27T00:22:46;93951.13;;;7.97;59.93
6024;BME280;3040;42.654;23.296;2023-04-27T00:25:13;93943.84;;;7.94;60.09
6024;BME280;3040;42.654;23.296;2023-04-27T00:27:40;93952.75;;;7.90;60.17
6024;BME280;3040;42.654;23.296;2023-04-27T00:30:07;93958.72;;;7.87;60.36
6024;BME280;3040;42.654;23.296;2023-04-27T00:32:34;93947.34;;;7.86;60.06
6024;BME280;3040;42.654;23.296;2023-04-27T00:35:01;93942.16;;;7.90;59.75
6024;BME280;3040;42.654;23.296;2023-04-27T00:37:28;93951.09;;;7.85;60.23
6024;BME280;3040;42.654;23.296;2023-04-27T00:39:56;93945.00;;;7.85;59.75
6024;BME280;3040;42.654;23.296;2023-04-27T00:42:23;93939.09;;;7.67;60.64
6024;BME280;3040;42.654;23.296;2023-04-27T00:44:50;93911.41;;;7.52;60.84
6024;BME280;3040;42.654;23.296;2023-04-27T00:47:17;93953.44;;;7.66;60.72
6024;BME280;3040;42.654;23.296;2023-04-27T00:49:44;93942.56;;;7.47;61.55
6024;BME280;3040;42.654;23.296;2023-04-27T00:52:11;93954.25;;;7.46;61.16
6024;BME280;3040;42.654;23.296;2023-04-27T00:54:38;93954.03;;;7.51;61.46
6024;BME280;3040;42.654;23.296;2023-04-27T00:57:06;93831.47;;;6.72;60.89
6024;BME280;3040;42.654;23.296;2023-04-27T00:59:34;93957.72;;;7.38;60.90
6024;BME280;3040;42.654;23.296;2023-04-27T01:02:01;93958.03;;;7.36;61.68
6024;BME280;3040;42.654;23.296;2023-04-27T01:04:28;93956.31;;;7.40;61.17
6024;BME280;3040;42.654;23.296;2023-04-27T01:06:56;93959.91;;;7.35;61.14
6024;BME280;3040;42.654;23.296;2023-04-27T01:09:23;93960.56;;;7.53;61.95
6024;BME280;3040;42.654;23.296;2023-04-27T01:11:50;93967.78;;;7.44;61.34
6024;BME280;3040;42.654;23.296;2023-04-27T01:14:18;93963.66;;;7.55;60.81
6024;BME280;3040;42.654;23.296;2023-04-27T01:16:45;93970.75;;;7.63;60.89
6024;BME280;3040;42.654;23.296;2023-04-27T01:19:12;93980.31;;;7.56;60.46
6024;BME280;3040;42.654;23.296;2023-04-27T01:21:39;93975.53;;;7.49;60.62
6024;BME280;3040;42.654;23.296;2023-04-27T01:24:08;93967.91;;;7.48;61.32
6024;BME280;3040;42.654;23.296;2023-04-27T01:26:35;93970.25;;;7.49;60.49
6024;BME280;3040;42.654;23.296;2023-04-27T01:29:02;93975.66;;;7.53;60.17
6024;BME280;3040;42.654;23.296;2023-04-27T01:31:29;93788.53;;;6.34;60.07
6024;BME280;3040;42.654;23.296;2023-04-27T01:33:56;93976.19;;;7.46;59.94
6024;BME280;3040;42.654;23.296;2023-04-27T01:36:23;93971.09;;;7.41;60.03
6024;BME280;3040;42.654;23.296;2023-04-27T01:38:49;93978.78;;;7.34;60.65
6024;BME280;3040;42.654;23.296;2023-04-27T01:41:18;93968.19;;;7.34;60.38
6024;BME280;3040;42.654;23.296;2023-04-27T01:43:45;93932.31;;;7.04;60.18
6024;BME280;3040;42.654;23.296;2023-04-27T01:46:12;93974.63;;;7.24;60.22
6024;BME280;3040;42.654;23.296;2023-04-27T01:48:40;93970.56;;;7.27;59.92
6024;BME280;3040;42.654;23.296;2023-04-27T01:51:07;93991.13;;;7.42;59.72
6024;BME280;3040;42.654;23.296;2023-04-27T01:53:34;93970.03;;;7.13;60.24
6024;BME280;3040;42.654;23.296;2023-04-27T01:56:01;93974.63;;;7.24;60.04
6024;BME280;3040;42.654;23.296;2023-04-27T01:58:29;93987.13;;;7.36;60.68
6024;BME280;3040;42.654;23.296;2023-04-27T02:00:56;93979.34;;;7.40;59.75
6024;BME280;3040;42.654;23.296;2023-04-27T02:03:23;93977.34;;;7.36;60.47
6024;BME280;3040;42.654;23.296;2023-04-27T02:05:51;93960.75;;;7.27;59.84
6024;BME280;3040;42.654;23.296;2023-04-27T02:08:17;93866.66;;;6.85;59.20
6024;BME280;3040;42.654;23.296;2023-04-27T02:10:44;93986.00;;;7.46;59.59
6024;BME280;3040;42.654;23.296;2023-04-27T02:13:11;93981.22;;;7.39;59.89
6024;BME280;3040;42.654;23.296;2023-04-27T02:15:39;93947.00;;;7.13;60.16
6024;BME280;3040;42.654;23.296;2023-04-27T02:18:06;93942.63;;;6.97;59.60
6024;BME280;3040;42.654;23.296;2023-04-27T02:20:33;93977.06;;;7.09;59.99
6024;BME280;3040;42.654;23.296;2023-04-27T02:23:00;93978.91;;;7.17;59.97
6024;BME280;3040;42.654;23.296;2023-04-27T02:25:27;93978.22;;;7.20;59.59
6024;BME280;3040;42.654;23.296;2023-04-27T02:27:54;93981.97;;;7.19;60.13
6024;BME280;3040;42.654;23.296;2023-04-27T02:30:20;93978.69;;;7.22;59.45
6024;BME280;3040;42.654;23.296;2023-04-27T02:32:49;93980.28;;;7.14;59.83
6024;BME280;3040;42.654;23.296;2023-04-27T02:35:16;93849.56;;;6.03;60.45
6024;BME280;3040;42.654;23.296;2023-04-27T02:37:43;93983.91;;;7.10;59.90
6024;BME280;3040;42.654;23.296;2023-04-27T02:40:10;93984.53;;;7.07;59.90
6024;BME280;3040;42.654;23.296;2023-04-27T02:42:37;93987.00;;;7.12;59.80
6024;BME280;3040;42.654;23.296;2023-04-27T02:45:05;93987.91;;;7.16;59.51
6024;BME280;3040;42.654;23.296;2023-04-27T02:47:33;93973.19;;;7.06;60.25
6024;BME280;3040;42.654;23.296;2023-04-27T02:50:01;93966.13;;;6.89;59.84
6024;BME280;3040;42.654;23.296;2023-04-27T02:52:28;93997.94;;;7.02;59.85
6024;BME280;3040;42.654;23.296;2023-04-27T02:54:55;93979.75;;;7.00;60.08
6024;BME280;3040;42.654;23.296;2023-04-27T02:57:22;93988.41;;;7.09;59.52
6024;BME280;3040;42.654;23.296;2023-04-27T02:59:49;93996.66;;;7.08;59.53
6024;BME280;3040;42.654;23.296;2023-04-27T03:02:17;93982.34;;;7.09;59.20
6024;BME280;3040;42.654;23.296;2023-04-27T03:04:44;93997.31;;;7.25;59.11
6024;BME280;3040;42.654;23.296;2023-04-27T03:07:12;94003.66;;;7.33;59.45
6024;BME280;3040;42.654;23.296;2023-04-27T03:09:39;94001.44;;;7.14;59.08
6024;BME280;3040;42.654;23.296;2023-04-27T03:12:05;93993.44;;;7.02;59.26
6024;BME280;3040;42.654;23.296;2023-04-27T03:14:32;93993.53;;;6.85;59.37
6024;BME280;3040;42.654;23.296;2023-04-27T03:16:59;94009.28;;;7.02;59.19
6024;BME280;3040;42.654;23.296;2023-04-27T03:19:27;94002.53;;;6.92;59.38
6024;BME280;3040;42.654;23.296;2023-04-27T03:21:54;94010.78;;;6.82;60.41
6024;BME280;3040;42.654;23.296;2023-04-27T03:24:22;93964.59;;;6.59;60.23
6024;BME280;3040;42.654;23.296;2023-04-27T03:26:50;93999.81;;;6.72;59.79
6024;BME280;3040;42.654;23.296;2023-04-27T03:29:17;94013.53;;;6.94;59.77
6024;BME280;3040;42.654;23.296;2023-04-27T03:31:44;93860.03;;;5.82;59.62
6024;BME280;3040;42.654;23.296;2023-04-27T03:34:11;94003.94;;;6.81;60.16
6024;BME280;3040;42.654;23.296;2023-04-27T03:36:37;94014.19;;;6.91;59.70
6024;BME280;3040;42.654;23.296;2023-04-27T03:39:04;94013.91;;;6.84;59.13
6024;BME280;3040;42.654;23.296;2023-04-27T03:41:32;94020.09;;;6.88;59.71
6024;BME280;3040;42.654;23.296;2023-04-27T03:43:59;94027.91;;;6.85;59.66
6024;BME280;3040;42.654;23.296;2023-04-27T03:46:26;94030.66;;;6.88;59.73
6024;BME280;3040;42.654;23.296;2023-04-27T03:48:53;94036.59;;;6.85;60.53
6024;BME280;3040;42.654;23.296;2023-04-27T03:51:19;94030.81;;;6.92;58.80
6024;BME280;3040;42.654;23.296;2023-04-27T03:53:46;94026.81;;;6.86;59.11
6024;BME280;3040;42.654;23.296;2023-04-27T03:56:13;94038.66;;;6.80;58.51
6024;BME280;3040;42.654;23.296;2023-04-27T03:58:41;94046.22;;;6.81;59.58
6024;BME280;3040;42.654;23.296;2023-04-27T04:01:08;94043.78;;;6.76;58.56
6024;BME280;3040;42.654;23.296;2023-04-27T04:03:35;94046.53;;;6.88;58.70
6024;BME280;3040;42.654;23.296;2023-04-27T04:06:03;94056.19;;;6.84;58.16
6024;BME280;3040;42.654;23.296;2023-04-27T04:08:29;94057.94;;;6.72;58.42
6024;BME280;3040;42.654;23.296;2023-04-27T04:10:58;94062.44;;;6.71;58.59
6024;BME280;3040;42.654;23.296;2023-04-27T04:13:26;94057.53;;;6.61;59.03
6024;BME280;3040;42.654;23.296;2023-04-27T04:16:01;94057.31;;;6.75;58.51
6024;BME280;3040;42.654;23.296;2023-04-27T04:18:28;94071.91;;;6.81;58.98
6024;BME280;3040;42.654;23.296;2023-04-27T04:20:55;94072.03;;;6.84;58.09
6024;BME280;3040;42.654;23.296;2023-04-27T04:23:22;94050.38;;;6.62;58.71
6024;BME280;3040;42.654;23.296;2023-04-27T04:25:49;94071.13;;;6.80;59.00
6024;BME280;3040;42.654;23.296;2023-04-27T04:28:16;94072.03;;;6.84;58.41
6024;BME280;3040;42.654;23.296;2023-04-27T04:30:43;94079.09;;;7.10;57.90
6024;BME280;3040;42.654;23.296;2023-04-27T04:33:11;94076.97;;;6.94;57.63
6024;BME280;3040;42.654;23.296;2023-04-27T04:35:38;94005.84;;;6.34;58.06
6024;BME280;3040;42.654;23.296;2023-04-27T04:38:06;94083.19;;;6.99;58.93
6024;BME280;3040;42.654;23.296;2023-04-27T04:40:33;94079.19;;;6.92;58.00
6024;BME280;3040;42.654;23.296;2023-04-27T04:43:00;94063.53;;;6.79;58.73
6024;BME280;3040;42.654;23.296;2023-04-27T04:45:27;94094.56;;;6.99;57.58
6024;BME280;3040;42.654;23.296;2023-04-27T04:47:54;94096.56;;;6.93;57.93
6024;BME280;3040;42.654;23.296;2023-04-27T04:50:23;94092.50;;;7.05;57.73
6024;BME280;3040;42.654;23.296;2023-04-27T04:52:50;94099.19;;;7.02;57.21
6024;BME280;3040;42.654;23.296;2023-04-27T04:55:17;94106.88;;;6.86;58.74
6024;BME280;3040;42.654;23.296;2023-04-27T04:57:43;94085.72;;;6.86;58.19
6024;BME280;3040;42.654;23.296;2023-04-27T05:00:11;94104.66;;;6.88;58.95
6024;BME280;3040;42.654;23.296;2023-04-27T05:02:39;94110.19;;;7.13;58.05
6024;BME280;3040;42.654;23.296;2023-04-27T05:05:06;94098.03;;;7.12;57.91
6024;BME280;3040;42.654;23.296;2023-04-27T05:07:35;94122.63;;;7.12;58.10
6024;BME280;3040;42.654;23.296;2023-04-27T05:10:02;94109.44;;;7.04;57.30
6024;BME280;3040;42.654;23.296;2023-04-27T05:12:29;94117.69;;;7.11;57.29
6024;BME280;3040;42.654;23.296;2023-04-27T05:14:56;94115.66;;;7.37;56.97
6024;BME280;3040;42.654;23.296;2023-04-27T05:17:23;94124.69;;;7.36;57.24
6024;BME280;3040;42.654;23.296;2023-04-27T05:19:49;94117.78;;;7.23;57.29
6024;BME280;3040;42.654;23.296;2023-04-27T05:22:16;94112.38;;;7.11;57.91
6024;BME280;3040;42.654;23.296;2023-04-27T05:24:44;94126.22;;;7.08;57.96
6024;BME280;3040;42.654;23.296;2023-04-27T05:27:11;94130.91;;;7.11;58.02
6024;BME280;3040;42.654;23.296;2023-04-27T05:29:39;94106.69;;;6.91;57.49
6024;BME280;3040;42.654;23.296;2023-04-27T05:32:06;94140.03;;;7.22;58.29
6024;BME280;3040;42.654;23.296;2023-04-27T05:34:34;94109.00;;;7.02;58.93
6024;BME280;3040;42.654;23.296;2023-04-27T05:37:01;94125.25;;;7.12;57.98
6024;BME280;3040;42.654;23.296;2023-04-27T05:39:28;94127.31;;;7.07;58.54
6024;BME280;3040;42.654;23.296;2023-04-27T05:41:56;94134.50;;;6.98;59.11
6024;BME280;3040;42.654;23.296;2023-04-27T05:44:23;94136.06;;;6.99;59.29
6024;BME280;3040;42.654;23.296;2023-04-27T05:46:53;94137.56;;;7.17;58.76
6024;BME280;3040;42.654;23.296;2023-04-27T05:49:20;94136.91;;;7.20;59.11
6024;BME280;3040;42.654;23.296;2023-04-27T05:51:47;94144.38;;;7.18;59.04
6024;BME280;3040;42.654;23.296;2023-04-27T05:54:15;94138.34;;;7.09;59.70
6024;BME280;3040;42.654;23.296;2023-04-27T05:56:41;94143.47;;;7.52;60.08
6024;BME280;3040;42.654;23.296;2023-04-27T05:59:10;94115.91;;;7.53;58.97
6024;BME280;3040;42.654;23.296;2023-04-27T06:01:36;94146.50;;;7.62;58.82
6024;BME280;3040;42.654;23.296;2023-04-27T06:04:03;94157.00;;;7.50;59.28
6024;BME280;3040;42.654;23.296;2023-04-27T06:06:31;94147.13;;;7.30;59.30
6024;BME280;3040;42.654;23.296;2023-04-27T06:08:58;94145.31;;;7.22;59.29
6024;BME280;3040;42.654;23.296;2023-04-27T06:11:25;94136.53;;;7.30;60.45
6024;BME280;3040;42.654;23.296;2023-04-27T06:13:52;94148.56;;;7.19;59.84
6024;BME280;3040;42.654;23.296;2023-04-27T06:16:20;94144.94;;;7.32;59.92
6024;BME280;3040;42.654;23.296;2023-04-27T06:18:48;94148.56;;;7.27;60.35
6024;BME280;3040;42.654;23.296;2023-04-27T06:21:15;94144.66;;;7.25;60.70
6024;BME280;3040;42.654;23.296;2023-04-27T06:23:42;94149.84;;;7.51;59.04
6024;BME280;3040;42.654;23.296;2023-04-27T06:26:09;94141.94;;;7.42;58.99
6024;BME280;3040;42.654;23.296;2023-04-27T06:28:35;94135.94;;;7.62;59.14
6024;BME280;3040;42.654;23.296;2023-04-27T06:31:03;94136.75;;;7.54;59.13
6024;BME280;3040;42.654;23.296;2023-04-27T06:33:31;94141.97;;;7.71;58.83
6024;BME280;3040;42.654;23.296;2023-04-27T06:35:59;94130.53;;;7.80;57.58
6024;BME280;3040;42.654;23.296;2023-04-27T06:38:26;94091.16;;;7.49;58.07
6024;BME280;3040;42.654;23.296;2023-04-27T06:40:53;94129.31;;;7.98;58.05
6024;BME280;3040;42.654;23.296;2023-04-27T06:43:20;94135.63;;;8.26;58.16
6024;BME280;3040;42.654;23.296;2023-04-27T06:45:46;94145.22;;;8.39;56.64
6024;BME280;3040;42.654;23.296;2023-04-27T06:48:13;94140.56;;;8.36;56.13
6024;BME280;3040;42.654;23.296;2023-04-27T06:50:42;94124.53;;;8.12;59.38
6024;BME280;3040;42.654;23.296;2023-04-27T06:53:09;94129.34;;;8.72;67.16
6024;BME280;3040;42.654;23.296;2023-04-27T06:55:36;93998.75;;;8.75;73.12
6024;BME280;3040;42.654;23.296;2023-04-27T06:58:03;94138.78;;;10.03;60.60
6024;BME280;3040;42.654;23.296;2023-04-27T07:00:30;94145.59;;;10.41;58.69
6024;BME280;3040;42.654;23.296;2023-04-27T07:02:56;94130.53;;;10.33;55.30
6024;BME280;3040;42.654;23.296;2023-04-27T07:05:23;94138.41;;;10.57;56.96
6024;BME280;3040;42.654;23.296;2023-04-27T07:07:52;93999.06;;;10.02;55.27
6024;BME280;3040;42.654;23.296;2023-04-27T07:10:19;94123.06;;;11.10;52.34
6024;BME280;3040;42.654;23.296;2023-04-27T07:12:46;94090.25;;;10.74;50.79
6024;BME280;3040;42.654;23.296;2023-04-27T07:15:13;94123.63;;;10.72;49.47
6024;BME280;3040;42.654;23.296;2023-04-27T07:17:39;94025.09;;;9.69;50.25
6024;BME280;3040;42.654;23.296;2023-04-27T07:20:07;94124.69;;;10.55;50.75
6024;BME280;3040;42.654;23.296;2023-04-27T07:22:34;94130.84;;;10.71;49.98
6024;BME280;3040;42.654;23.296;2023-04-27T07:25:03;94130.47;;;11.00;50.38
6024;BME280;3040;42.654;23.296;2023-04-27T07:27:30;94130.84;;;10.71;48.56
6024;BME280;3040;42.654;23.296;2023-04-27T07:29:57;94123.63;;;10.44;48.70
6024;BME280;3040;42.654;23.296;2023-04-27T07:32:24;94115.50;;;10.52;50.83
6024;BME280;3040;42.654;23.296;2023-04-27T07:34:51;94124.63;;;10.67;49.47
6024;BME280;3040;42.654;23.296;2023-04-27T07:37:18;94121.50;;;10.77;50.01
6024;BME280;3040;42.654;23.296;2023-04-27T07:39:45;94120.00;;;11.08;50.34
6024;BME280;3040;42.654;23.296;2023-04-27T07:42:13;94117.19;;;11.32;47.69
6024;BME280;3040;42.654;23.296;2023-04-27T07:44:40;94118.63;;;11.14;49.70
6024;BME280;3040;42.654;23.296;2023-04-27T07:47:07;94110.34;;;10.87;47.16
6024;BME280;3040;42.654;23.296;2023-04-27T07:49:35;94116.94;;;10.50;48.75
6024;BME280;3040;42.654;23.296;2023-04-27T07:52:03;94108.66;;;11.11;48.64
6024;BME280;3040;42.654;23.296;2023-04-27T07:54:29;94113.13;;;11.38;48.28
6024;BME280;3040;42.654;23.296;2023-04-27T07:56:57;94119.66;;;11.56;47.27
6024;BME280;3040;42.654;23.296;2023-04-27T07:59:27;94127.63;;;11.72;46.95
6024;BME280;3040;42.654;23.296;2023-04-27T08:01:54;94115.41;;;10.77;46.27
6024;BME280;3040;42.654;23.296;2023-04-27T08:04:21;94129.53;;;11.09;48.67
6024;BME280;3040;42.654;23.296;2023-04-27T08:06:47;94123.97;;;11.45;47.18
6024;BME280;3040;42.654;23.296;2023-04-27T08:09:14;94114.56;;;11.82;47.17
6024;BME280;3040;42.654;23.296;2023-04-27T08:11:41;94125.88;;;11.95;46.33
6024;BME280;3040;42.654;23.296;2023-04-27T08:14:08;94124.06;;;11.99;45.35
6024;BME280;3040;42.654;23.296;2023-04-27T08:16:39;94016.63;;;11.25;44.83
6024;BME280;3040;42.654;23.296;2023-04-27T08:19:06;94117.59;;;11.34;46.66
6024;BME280;3040;42.654;23.296;2023-04-27T08:21:33;94119.94;;;10.76;45.77
6024;BME280;3040;42.654;23.296;2023-04-27T08:24:01;94131.03;;;10.10;48.65
6024;BME280;3040;42.654;23.296;2023-04-27T08:26:27;94130.50;;;10.45;48.69
6024;BME280;3040;42.654;23.296;2023-04-27T08:28:54;94127.25;;;10.24;47.76
6024;BME280;3040;42.654;23.296;2023-04-27T08:31:22;94129.09;;;10.35;49.28
6024;BME280;3040;42.654;23.296;2023-04-27T08:33:50;94131.03;;;10.23;48.61
6024;BME280;3040;42.654;23.296;2023-04-27T08:36:17;94119.75;;;10.69;49.14
6024;BME280;3040;42.654;23.296;2023-04-27T08:38:44;94123.59;;;10.99;47.12
6024;BME280;3040;42.654;23.296;2023-04-27T08:41:17;94120.41;;;11.41;48.54
6024;BME280;3040;42.654;23.296;2023-04-27T08:43:44;94102.22;;;11.12;48.25
6024;BME280;3040;42.654;23.296;2023-04-27T08:46:11;94120.06;;;11.11;45.97
6024;BME280;3040;42.654;23.296;2023-04-27T08:48:37;94122.31;;;11.56;48.00
6024;BME280;3040;42.654;23.296;2023-04-27T08:51:08;94127.53;;;12.19;45.79
6024;BME280;3040;42.654;23.296;2023-04-27T08:53:36;94120.91;;;12.13;44.04
6024;BME280;3040;42.654;23.296;2023-04-27T08:56:03;94139.84;;;11.26;44.85
6024;BME280;3040;42.654;23.296;2023-04-27T08:58:36;94126.78;;;11.21;45.83
6024;BME280;3040;42.654;23.296;2023-04-27T09:01:04;94128.41;;;11.41;45.24
6024;BME280;3040;42.654;23.296;2023-04-27T09:03:32;94120.41;;;10.94;45.60
6024;BME280;3040;42.654;23.296;2023-04-27T09:06:00;94119.03;;;11.00;45.14
6024;BME280;3040;42.654;23.296;2023-04-27T09:08:28;93985.13;;;10.33;45.63
6024;BME280;3040;42.654;23.296;2023-04-27T09:10:55;94102.97;;;11.28;46.59
6024;BME280;3040;42.654;23.296;2023-04-27T09:13:22;94109.06;;;11.60;44.60
6024;BME280;3040;42.654;23.296;2023-04-27T09:15:50;94118.41;;;11.69;45.75
6024;BME280;3040;42.654;23.296;2023-04-27T09:18:19;94121.53;;;11.56;44.40
6024;BME280;3040;42.654;23.296;2023-04-27T09:20:47;94111.47;;;11.80;44.19
6024;BME280;3040;42.654;23.296;2023-04-27T09:23:29;94116.75;;;11.96;42.75
6024;BME280;3040;42.654;23.296;2023-04-27T09:25:57;94105.94;;;13.04;43.64
6024;BME280;3040;42.654;23.296;2023-04-27T09:28:25;94089.38;;;13.90;41.97
6024;BME280;3040;42.654;23.296;2023-04-27T09:30:54;94105.41;;;13.90;38.05
6024;BME280;3040;42.654;23.296;2023-04-27T09:33:22;94102.72;;;14.16;39.91
6024;BME280;3040;42.654;23.296;2023-04-27T09:35:49;94102.16;;;14.04;39.10
6024;BME280;3040;42.654;23.296;2023-04-27T09:38:16;93974.13;;;12.44;38.25
6024;BME280;3040;42.654;23.296;2023-04-27T09:40:45;94096.03;;;13.05;39.39
6024;BME280;3040;42.654;23.296;2023-04-27T09:43:11;94058.31;;;12.64;40.19
6024;BME280;3040;42.654;23.296;2023-04-27T09:45:40;94075.59;;;11.94;41.70
6024;BME280;3040;42.654;23.296;2023-04-27T09:48:08;94066.44;;;11.75;41.31
6024;BME280;3040;42.654;23.296;2023-04-27T09:50:36;94061.91;;;11.95;42.52
6024;BME280;3040;42.654;23.296;2023-04-27T09:53:07;94054.94;;;12.68;41.82
6024;BME280;3040;42.654;23.296;2023-04-27T09:55:38;94077.69;;;13.49;41.57
6024;BME280;3040;42.654;23.296;2023-04-27T10:01:17;94079.03;;;15.19;35.96
6024;BME280;3040;42.654;23.296;2023-04-27T10:04:08;94073.44;;;14.60;35.28
6024;BME280;3040;42.654;23.296;2023-04-27T10:07:02;94074.78;;;14.77;36.48
6024;BME280;3040;42.654;23.296;2023-04-27T10:09:35;94076.56;;;15.03;35.20
6024;BME280;3040;42.654;23.296;2023-04-27T10:12:17;94065.38;;;15.34;34.89
6024;BME280;3040;42.654;23.296;2023-04-27T10:14:48;94080.47;;;14.39;34.86
6024;BME280;3040;42.654;23.296;2023-04-27T10:17:18;94075.59;;;14.18;34.79
6024;BME280;3040;42.654;23.296;2023-04-27T10:19:55;94062.81;;;14.34;34.77
6024;BME280;3040;42.654;23.296;2023-04-27T10:22:23;94090.09;;;14.17;34.65
6024;BME280;3040;42.654;23.296;2023-04-27T10:25:12;94084.91;;;14.27;35.75
6024;BME280;3040;42.654;23.296;2023-04-27T10:27:39;94072.16;;;14.47;36.27
6024;BME280;3040;42.654;23.296;2023-04-27T10:30:09;94073.97;;;15.14;33.37
6024;BME280;3040;42.654;23.296;2023-04-27T10:32:49;94062.78;;;16.00;32.71
6024;BME280;3040;42.654;23.296;2023-04-27T10:35:16;94055.81;;;16.67;33.53
6024;BME280;3040;42.654;23.296;2023-04-27T10:37:44;94060.88;;;16.97;34.12
6024;BME280;3040;42.654;23.296;2023-04-27T10:40:13;94074.75;;;17.81;30.44
6024;BME280;3040;42.654;23.296;2023-04-27T10:42:41;94065.06;;;15.98;30.02
6024;BME280;3040;42.654;23.296;2023-04-27T10:45:10;94032.28;;;14.72;31.92
6024;BME280;3040;42.654;23.296;2023-04-27T10:47:39;94041.59;;;15.29;33.21
6024;BME280;3040;42.654;23.296;2023-04-27T10:50:08;94044.25;;;15.77;34.04
6024;BME280;3040;42.654;23.296;2023-04-27T10:52:39;94053.34;;;14.10;33.23
6024;BME280;3040;42.654;23.296;2023-04-27T10:55:14;93947.50;;;13.46;34.24
6024;BME280;3040;42.654;23.296;2023-04-27T10:57:48;94055.81;;;14.56;32.66
6024;BME280;3040;42.654;23.296;2023-04-27T11:00:22;93983.97;;;14.58;32.04
6024;BME280;3040;42.654;23.296;2023-04-27T11:02:52;94065.75;;;15.87;31.89
6024;BME280;3040;42.654;23.296;2023-04-27T11:05:20;94040.69;;;15.11;31.99
6024;BME280;3040;42.654;23.296;2023-04-27T11:07:48;94054.88;;;14.11;33.05
6024;BME280;3040;42.654;23.296;2023-04-27T11:10:16;94032.31;;;13.26;35.07
6024;BME280;3040;42.654;23.296;2023-04-27T11:12:43;94075.78;;;14.02;36.47
6024;BME280;3040;42.654;23.296;2023-04-27T11:15:11;94063.56;;;14.35;34.48
6024;BME280;3040;42.654;23.296;2023-04-27T11:17:38;94061.63;;;14.65;34.87
6024;BME280;3040;42.654;23.296;2023-04-27T11:20:08;94066.56;;;14.96;34.78
6024;BME280;3040;42.654;23.296;2023-04-27T11:22:43;94066.78;;;14.81;35.03
6024;BME280;3040;42.654;23.296;2023-04-27T11:25:11;94042.47;;;14.59;33.87
6024;BME280;3040;42.654;23.296;2023-04-27T11:27:39;94060.84;;;14.98;34.01
6024;BME280;3040;42.654;23.296;2023-04-27T11:30:18;94063.28;;;15.61;34.12
6024;BME280;3040;42.654;23.296;2023-04-27T11:32:45;94068.84;;;15.90;33.11
6024;BME280;3040;42.654;23.296;2023-04-27T11:35:14;94066.06;;;15.28;33.96
6024;BME280;3040;42.654;23.296;2023-04-27T11:37:41;94043.81;;;14.43;35.88
6024;BME280;3040;42.654;23.296;2023-04-27T11:40:08;93975.63;;;14.30;36.06
6024;BME280;3040;42.654;23.296;2023-04-27T11:42:36;94064.53;;;15.27;34.83
6024;BME280;3040;42.654;23.296;2023-04-27T11:45:04;94073.63;;;15.15;33.98
6024;BME280;3040;42.654;23.296;2023-04-27T11:47:32;94066.84;;;15.28;35.00
6024;BME280;3040;42.654;23.296;2023-04-27T11:50:01;94067.50;;;16.27;33.78
6024;BME280;3040;42.654;23.296;2023-04-27T11:52:31;94077.09;;;15.63;31.79
6024;BME280;3040;42.654;23.296;2023-04-27T11:54:59;93953.84;;;14.68;33.00
6024;BME280;3040;42.654;23.296;2023-04-27T11:57:27;94064.31;;;16.04;34.63
6024;BME280;3040;42.654;23.296;2023-04-27T11:59:56;94073.66;;;16.35;33.18
6024;BME280;3040;42.654;23.296;2023-04-27T12:02:25;94070.81;;;16.76;31.30
6024;BME280;3040;42.654;23.296;2023-04-27T12:04:52;94066.28;;;16.11;33.97
6024;BME280;3040;42.654;23.296;2023-04-27T12:07:19;94079.97;;;16.67;32.11
6024;BME280;3040;42.654;23.296;2023-04-27T12:09:47;94077.59;;;16.59;31.34
6024;BME280;3040;42.654;23.296;2023-04-27T12:12:14;94068.06;;;16.65;31.44
6024;BME280;3040;42.654;23.296;2023-04-27T12:14:43;94079.47;;;15.75;32.42
6024;BME280;3040;42.654;23.296;2023-04-27T12:17:10;93955.03;;;15.22;31.66
6024;BME280;3040;42.654;23.296;2023-04-27T12:19:37;94074.31;;;16.11;32.22
6024;BME280;3040;42.654;23.296;2023-04-27T12:22:04;94082.22;;;15.82;32.11
6024;BME280;3040;42.654;23.296;2023-04-27T12:24:30;94091.19;;;14.39;33.60
6024;BME280;3040;42.654;23.296;2023-04-27T12:26:59;94079.09;;;13.92;35.32
6024;BME280;3040;42.654;23.296;2023-04-27T12:29:27;94091.63;;;13.62;36.31
6024;BME280;3040;42.654;23.296;2023-04-27T12:31:54;94098.00;;;13.80;36.18
6024;BME280;3040;42.654;23.296;2023-04-27T12:34:21;94082.06;;;13.87;36.19
6024;BME280;3040;42.654;23.296;2023-04-27T12:36:48;94078.94;;;13.55;36.65
6024;BME280;3040;42.654;23.296;2023-04-27T12:39:16;94088.19;;;13.38;37.09
6024;BME280;3040;42.654;23.296;2023-04-27T12:41:44;94084.91;;;13.22;37.62
6024;BME280;3040;42.654;23.296;2023-04-27T12:44:13;94101.59;;;13.65;37.88
6024;BME280;3040;42.654;23.296;2023-04-27T12:46:41;94017.50;;;13.55;38.34
6024;BME280;3040;42.654;23.296;2023-04-27T12:49:08;94085.66;;;14.28;37.47
6024;BME280;3040;42.654;23.296;2023-04-27T12:51:36;94106.34;;;14.31;35.73
6024;BME280;3040;42.654;23.296;2023-04-27T12:54:04;94091.97;;;14.43;35.15
6024;BME280;3040;42.654;23.296;2023-04-27T12:56:33;94074.00;;;13.12;37.39
6024;BME280;3040;42.654;23.296;2023-04-27T12:59:00;94095.72;;;13.82;36.69
6024;BME280;3040;42.654;23.296;2023-04-27T13:01:28;94097.84;;;13.69;36.32
6024;BME280;3040;42.654;23.296;2023-04-27T13:03:58;94095.63;;;13.75;36.56
6024;BME280;3040;42.654;23.296;2023-04-27T13:06:25;94094.41;;;14.25;36.80
6024;BME280;3040;42.654;23.296;2023-04-27T13:08:53;94063.19;;;14.03;35.28
6024;BME280;3040;42.654;23.296;2023-04-27T13:11:20;94088.59;;;13.63;36.17
6024;BME280;3040;42.654;23.296;2023-04-27T13:13:47;94100.63;;;13.08;37.82
6024;BME280;3040;42.654;23.296;2023-04-27T13:16:13;94098.56;;;13.66;36.91
6024;BME280;3040;42.654;23.296;2023-04-27T13:18:42;94092.31;;;14.11;37.11
6024;BME280;3040;42.654;23.296;2023-04-27T13:21:12;94091.59;;;14.14;35.38
6024;BME280;3040;42.654;23.296;2023-04-27T13:23:39;94094.19;;;13.81;36.22